Time;durP1;ratioP1;P1;durP2;ratioP2;P2;SDS_P1;SDS_P2;PMS_P1;PMS_P2;Temp;Humidity;BMP_temperature;BMP_pressure;BME280_temperature;BME280_humidity;BME280_pressure;Samples;Min_cycle;Max_cycle;Signal;HPM_P1;HPM_P2
2021/12/13 00:02:18;;;;;;;10.35;5.50;;;-6.50;99.90;;;;;;4377836;32;20531;-70
2021/12/13 00:05:16;;;;;;;9.25;5.05;;;-6.80;99.90;;;;;;4389859;32;20139;-69
2021/12/13 00:07:53;;;;;;;8.07;4.47;;;-6.80;99.90;;;;;;4376662;32;20077;-71
2021/12/13 00:10:24;;;;;;;7.55;4.57;;;-7.00;99.90;;;;;;4390736;32;20436;-69
2021/12/13 00:13:08;;;;;;;8.23;5.03;;;-6.90;99.90;;;;;;4389967;32;20090;-69
2021/12/13 00:15:48;;;;;;;11.93;5.28;;;-6.70;99.90;;;;;;4402647;32;20548;-69
2021/12/13 00:18:22;;;;;;;11.23;5.28;;;-6.90;99.90;;;;;;4377258;32;20097;-70
2021/12/13 00:21:04;;;;;;;10.32;5.55;;;-7.30;99.90;;;;;;4377181;32;20471;-69
2021/12/13 00:24:15;;;;;;;9.55;5.03;;;-7.20;99.90;;;;;;4378856;32;20070;-69
2021/12/13 00:26:49;;;;;;;10.45;5.05;;;-7.00;99.90;;;;;;4382659;32;20081;-70
2021/12/13 00:29:23;;;;;;;9.65;5.03;;;-7.00;99.90;;;;;;4380190;32;20078;-70
2021/12/13 00:32:14;;;;;;;6.82;4.80;;;-7.00;99.90;;;;;;4392907;32;20070;-70
2021/12/13 00:34:56;;;;;;;8.82;5.00;;;-6.80;99.90;;;;;;4405351;32;20073;-70
2021/12/13 00:37:38;;;;;;;9.27;4.93;;;-7.00;99.90;;;;;;4405772;32;20085;-69
2021/12/13 00:40:23;;;;;;;15.82;7.03;;;-7.40;99.90;;;;;;4392882;32;20086;-68
2021/12/13 00:43:15;;;;;;;11.73;5.50;;;-7.60;99.90;;;;;;4394303;32;20061;-70
2021/12/13 00:45:58;;;;;;;8.93;5.12;;;-7.40;99.90;;;;;;4384407;32;20093;-70
2021/12/13 00:48:28;;;;;;;9.93;5.43;;;-7.60;99.90;;;;;;4405393;32;20081;-70
2021/12/13 00:51:29;;;;;;;7.80;5.10;;;-7.30;99.90;;;;;;4394361;32;20092;-70
2021/12/13 00:54:03;;;;;;;6.30;4.55;;;-7.50;99.90;;;;;;4379782;32;20496;-70
2021/12/13 00:57:03;;;;;;;10.07;4.97;;;-7.20;99.90;;;;;;4392937;32;20097;-69
2021/12/13 00:59:35;;;;;;;11.00;4.50;;;-7.10;99.90;;;;;;4394028;32;20595;-70
2021/12/13 01:02:08;;;;;;;7.90;3.87;;;-7.20;99.90;;;;;;4393086;32;20074;-71
2021/12/13 01:04:59;;;;;;;7.93;3.70;;;-6.70;99.90;;;;;;4392771;32;20074;-70
2021/12/13 01:07:34;;;;;;;6.50;3.25;;;-6.40;99.90;;;;;;4393903;32;20496;-69
2021/12/13 01:10:38;;;;;;;6.25;3.42;;;-5.80;99.90;;;;;;4393670;32;20081;-69
2021/12/13 01:13:22;;;;;;;6.75;3.25;;;-5.50;99.90;;;;;;4392035;32;20090;-69
2021/12/13 01:19:36;;;;;;;9.07;3.80;;;-5.60;99.90;;;;;;4390842;32;20079;-69
2021/12/13 01:25:38;;;;;;;5.62;3.70;;;-5.60;99.90;;;;;;4403451;32;20065;-69
2021/12/13 01:28:20;;;;;;;6.95;3.45;;;-5.60;99.90;;;;;;4393009;32;20084;-69
2021/12/13 01:31:00;;;;;;;5.43;3.53;;;-5.70;99.90;;;;;;4406787;32;20115;-70
2021/12/13 01:33:30;;;;;;;6.37;3.65;;;-5.70;99.90;;;;;;4394886;32;20213;-69
2021/12/13 01:36:05;;;;;;;6.37;3.80;;;-5.80;99.90;;;;;;4412058;32;20309;-70
2021/12/13 01:38:45;;;;;;;7.43;3.45;;;-5.90;99.90;;;;;;4397888;32;20085;-69
2021/12/13 01:41:36;;;;;;;7.57;3.78;;;-5.90;99.90;;;;;;4396847;32;20154;-70
2021/12/13 01:44:21;;;;;;;6.00;3.72;;;-6.00;99.90;;;;;;4381293;32;20584;-69
2021/12/13 01:47:00;;;;;;;5.62;3.92;;;-5.80;99.90;;;;;;4391722;32;20511;-70
2021/12/13 01:49:45;;;;;;;6.75;3.25;;;-5.70;99.90;;;;;;4379668;32;20090;-70
2021/12/13 01:52:29;;;;;;;5.20;3.72;;;-5.70;99.90;;;;;;4391835;32;20158;-70
2021/12/13 01:55:00;;;;;;;6.57;3.60;;;-5.70;99.90;;;;;;4391911;32;20162;-70
2021/12/13 01:57:53;;;;;;;5.35;3.80;;;-5.80;99.90;;;;;;4404754;32;20062;-70
2021/12/13 02:00:43;;;;;;;5.37;3.72;;;-5.80;99.90;;;;;;4381597;32;20077;-70
2021/12/13 02:03:11;;;;;;;7.32;3.70;;;-6.00;99.90;;;;;;4391892;32;20081;-69
2021/12/13 02:05:38;;;;;;;6.35;3.47;;;-6.00;99.90;;;;;;4404355;32;20080;-70
2021/12/13 02:08:13;;;;;;;7.72;3.70;;;-6.20;99.90;;;;;;4404651;32;20089;-70
2021/12/13 02:10:49;;;;;;;6.82;3.80;;;-6.10;99.90;;;;;;4392019;32;20161;-70
2021/12/13 02:13:38;;;;;;;10.27;3.90;;;-6.10;99.90;;;;;;4379051;32;20213;-68
2021/12/13 02:18:55;;;;;;;;;;;-6.10;99.90;;;;;;4392929;32;20162;-69
2021/12/13 02:21:34;;;;;;;6.62;3.72;;;-6.20;99.90;;;;;;4378823;32;20407;-69
2021/12/13 02:24:10;;;;;;;6.12;3.85;;;-6.20;99.90;;;;;;4391213;32;20101;-70
2021/12/13 02:26:46;;;;;;;8.05;3.67;;;-6.20;99.90;;;;;;4378780;32;20578;-69
2021/12/13 02:29:30;;;;;;;;;;;-6.20;99.90;;;;;;4391185;32;20571;-71
2021/12/13 02:32:01;;;;;;;4.72;3.15;;;-6.20;99.90;;;;;;4403697;32;19979;-70
2021/12/13 02:34:30;;;;;;;4.82;2.60;;;-6.10;99.90;;;;;;4391120;32;20553;-70
2021/12/13 02:36:57;;;;;;;6.43;2.90;;;-6.10;99.90;;;;;;4393169;32;20097;-70
2021/12/13 02:39:33;;;;;;;4.07;3.03;;;-6.10;99.90;;;;;;4378285;32;20151;-70
2021/12/13 02:42:04;;;;;;;4.70;2.95;;;-6.10;99.90;;;;;;4403761;32;20078;-69
2021/12/13 02:44:38;;;;;;;5.25;3.33;;;-5.90;99.90;;;;;;4392622;32;20097;-70
2021/12/13 02:47:31;;;;;;;3.87;2.60;;;-5.90;99.90;;;;;;4377211;32;20501;-69
2021/12/13 02:49:59;;;;;;;4.68;2.80;;;-5.70;99.90;;;;;;4378570;32;20085;-70
2021/12/13 02:52:27;;;;;;;4.32;2.58;;;-5.70;99.90;;;;;;4378696;32;20109;-70
2021/12/13 02:55:08;;;;;;;4.70;2.50;;;-5.70;99.90;;;;;;4392163;32;20108;-69
2021/12/13 02:57:43;;;;;;;4.87;2.70;;;-5.60;99.90;;;;;;4390575;32;20066;-70
2021/12/13 03:00:19;;;;;;;3.80;2.78;;;-5.60;99.90;;;;;;4403468;32;20080;-69
2021/12/13 03:02:47;;;;;;;;;;;-5.60;99.90;;;;;;4378960;32;20504;-70
2021/12/13 03:05:34;;;;;;;3.40;2.40;;;-5.50;99.90;;;;;;4391299;32;20048;-70
2021/12/13 03:08:13;;;;;;;4.03;2.47;;;-5.60;99.90;;;;;;4366002;32;20165;-70
2021/12/13 03:10:48;;;;;;;4.32;2.50;;;-5.50;99.90;;;;;;4391580;32;20069;-70
2021/12/13 03:13:18;;;;;;;5.37;2.53;;;-5.60;99.90;;;;;;4378518;32;20109;-70
2021/12/13 03:15:57;;;;;;;2.83;2.30;;;-5.60;99.90;;;;;;4403667;32;20071;-69
2021/12/13 03:18:40;;;;;;;4.87;2.30;;;-5.60;99.90;;;;;;4378490;32;20058;-69
2021/12/13 03:21:54;;;;;;;3.17;2.20;;;-5.60;99.90;;;;;;4378784;32;20180;-69
2021/12/13 03:24:49;;;;;;;3.97;2.60;;;-5.60;99.90;;;;;;4392504;32;20070;-74
2021/12/13 03:27:48;;;;;;;3.30;2.30;;;-5.70;99.90;;;;;;4364524;32;20185;-69
2021/12/13 03:30:37;;;;;;;4.95;2.75;;;-5.70;99.90;;;;;;4392241;32;20081;-69
2021/12/13 03:33:12;;;;;;;4.72;3.20;;;-5.80;99.90;;;;;;4377999;32;20565;-70
2021/12/13 03:35:56;;;;;;;4.10;2.65;;;-5.80;99.90;;;;;;4377891;32;20074;-69
2021/12/13 03:38:34;;;;;;;4.70;2.70;;;-5.80;99.90;;;;;;4378153;32;20094;-69
2021/12/13 03:41:08;;;;;;;5.20;2.47;;;-5.80;99.90;;;;;;4390401;32;20157;-70
2021/12/13 03:43:53;;;;;;;3.20;2.47;;;-5.90;99.90;;;;;;4402990;32;20072;-69
2021/12/13 03:46:25;;;;;;;4.43;2.45;;;-5.90;99.90;;;;;;4377874;32;20609;-69
2021/12/13 03:48:55;;;;;;;5.40;2.97;;;-5.80;99.90;;;;;;4402726;32;20468;-69
2021/12/13 03:51:32;;;;;;;7.12;2.60;;;-5.80;99.90;;;;;;4402533;32;20527;-69
2021/12/13 03:54:00;;;;;;;4.90;2.30;;;-5.80;99.90;;;;;;4389951;32;20512;-69
2021/12/13 03:56:37;;;;;;;5.82;2.50;;;-5.80;99.90;;;;;;4390458;32;20081;-70
2021/12/13 03:59:19;;;;;;;7.40;2.47;;;-5.90;99.90;;;;;;4377454;32;20066;-70
2021/12/13 04:02:02;;;;;;;6.62;2.67;;;-5.90;99.90;;;;;;4403225;32;20069;-69
2021/12/13 04:04:36;;;;;;;4.03;2.20;;;-5.80;99.90;;;;;;4391492;32;20121;-69
2021/12/13 04:07:20;;;;;;;2.90;2.00;;;-5.70;99.90;;;;;;4389745;32;20618;-70
2021/12/13 04:09:51;;;;;;;5.78;2.05;;;-5.60;99.90;;;;;;4390218;32;20066;-69
2021/12/13 04:12:23;;;;;;;5.68;1.98;;;-5.70;99.90;;;;;;4378056;32;20482;-70
2021/12/13 04:14:58;;;;;;;5.45;2.20;;;-5.80;99.90;;;;;;4377304;32;20053;-69
2021/12/13 04:17:56;;;;;;;4.87;3.15;;;-5.80;99.90;;;;;;4390099;32;20078;-69
2021/12/13 04:20:35;;;;;;;3.60;2.12;;;-5.80;99.90;;;;;;4389905;32;20538;-69
2021/12/13 04:23:20;;;;;;;3.08;1.87;;;-5.80;99.90;;;;;;4389793;32;20169;-70
2021/12/13 04:25:50;;;;;;;4.05;2.30;;;-5.80;99.90;;;;;;4402266;32;20104;-68
2021/12/13 04:28:50;;;;;;;2.92;1.98;;;-5.80;99.90;;;;;;4402394;32;20082;-69
2021/12/13 04:31:28;;;;;;;4.65;1.90;;;-5.80;99.90;;;;;;4377041;32;20250;-69
2021/12/13 04:34:02;;;;;;;3.25;2.20;;;-5.80;99.90;;;;;;4402533;32;20474;-70
2021/12/13 04:36:49;;;;;;;5.25;2.20;;;-5.80;99.90;;;;;;4402820;32;20084;-69
2021/12/13 04:39:32;;;;;;;;;;;-5.70;99.90;;;;;;4390465;32;20097;-69
2021/12/13 04:42:13;;;;;;;3.72;2.05;;;-5.80;99.90;;;;;;4364880;32;20335;-67
2021/12/13 04:44:50;;;;;;;3.85;2.10;;;-5.80;99.90;;;;;;4377457;32;20074;-72
2021/12/13 04:47:34;;;;;;;4.53;2.08;;;-5.80;99.90;;;;;;4389428;32;20092;-66
2021/12/13 04:50:14;;;;;;;4.03;2.10;;;-5.90;99.90;;;;;;4402548;32;20172;-71
2021/12/13 04:52:41;;;;;;;5.90;2.53;;;-5.80;99.90;;;;;;4377083;32;20497;-71
2021/12/13 04:55:36;;;;;;;3.90;2.10;;;-5.80;99.90;;;;;;4377830;32;20105;-69
2021/12/13 04:58:09;;;;;;;2.30;2.03;;;-5.80;99.90;;;;;;4377208;32;20164;-69
2021/12/13 05:00:46;;;;;;;4.55;1.73;;;-5.80;99.90;;;;;;4389529;32;20158;-71
2021/12/13 05:03:17;;;;;;;4.05;2.30;;;-5.80;99.90;;;;;;4389841;32;20164;-68
2021/12/13 05:05:43;;;;;;;2.75;2.12;;;-5.90;99.90;;;;;;4389660;32;20138;-71
2021/12/13 05:08:14;;;;;;;4.40;2.22;;;-5.90;99.90;;;;;;4391270;32;20216;-69
2021/12/13 05:10:46;;;;;;;5.82;2.40;;;-5.90;99.90;;;;;;4403799;32;20514;-70
2021/12/13 05:13:20;;;;;;;4.90;2.30;;;-5.80;99.90;;;;;;4380063;32;20066;-70
2021/12/13 05:16:00;;;;;;;2.50;1.83;;;-5.80;99.90;;;;;;4367550;32;20077;-69
2021/12/13 05:18:33;;;;;;;4.32;2.53;;;-5.80;99.90;;;;;;4381685;32;20092;-71
2021/12/13 05:21:08;;;;;;;2.80;2.28;;;-5.80;99.90;;;;;;4385482;32;20105;-71
2021/12/13 05:23:51;;;;;;;5.68;2.47;;;-5.80;99.90;;;;;;4397401;32;20108;-73
2021/12/13 05:26:51;;;;;;;5.90;2.30;;;-5.70;99.90;;;;;;4395445;32;20081;-72
2021/12/13 05:29:35;;;;;;;3.97;2.37;;;-5.80;99.90;;;;;;4329292;32;20085;-70
2021/12/13 05:32:31;;;;;;;4.70;2.62;;;-5.80;99.90;;;;;;4406034;32;20158;-71
2021/12/13 05:35:12;;;;;;;7.60;2.65;;;-5.80;99.90;;;;;;4392176;32;20094;-70
2021/12/13 05:37:47;;;;;;;3.47;2.20;;;-5.80;99.90;;;;;;4404489;32;20089;-71
2021/12/13 05:40:23;;;;;;;4.93;2.22;;;-5.30;99.90;;;;;;4404922;32;20589;-70
2021/12/13 05:42:54;;;;;;;5.00;2.58;;;-5.00;99.90;;;;;;4379591;32;20107;-70
2021/12/13 05:45:35;;;;;;;3.87;2.28;;;-5.10;99.90;;;;;;4405129;32;20568;-71
2021/12/13 05:48:10;;;;;;;3.47;2.55;;;-5.40;99.90;;;;;;4379620;32;20097;-69
2021/12/13 05:51:04;;;;;;;4.90;2.30;;;-5.40;99.90;;;;;;4391885;32;20074;-71
2021/12/13 05:53:38;;;;;;;7.97;2.10;;;-5.60;99.90;;;;;;4379646;32;20270;-70
2021/12/13 05:56:16;;;;;;;4.60;2.15;;;-5.60;99.90;;;;;;4391791;32;20070;-71
2021/12/13 05:58:54;;;;;;;4.60;2.30;;;-5.70;99.90;;;;;;4392445;32;20513;-70
2021/12/13 06:01:50;;;;;;;5.32;2.20;;;-5.70;99.90;;;;;;4393088;32;20088;-70
2021/12/13 06:04:38;;;;;;;3.95;2.55;;;-5.70;99.90;;;;;;4391784;32;20161;-71
2021/12/13 06:07:32;;;;;;;6.70;2.20;;;-5.70;99.90;;;;;;4392540;32;20470;-70
2021/12/13 06:10:13;;;;;;;5.60;2.37;;;-5.70;99.90;;;;;;4404212;32;20531;-72
2021/12/13 06:12:45;;;;;;;5.68;2.60;;;-5.80;99.90;;;;;;4379389;32;20081;-72
2021/12/13 06:15:31;;;;;;;5.15;2.40;;;-5.80;99.90;;;;;;4391428;32;20157;-72
2021/12/13 06:17:59;;;;;;;;;;;-5.80;99.90;;;;;;4393306;32;20484;-71
2021/12/13 06:20:34;;;;;;;3.28;2.25;;;-5.70;99.90;;;;;;4391635;32;19979;-72
2021/12/13 06:23:33;;;;;;;4.65;2.25;;;-5.80;99.90;;;;;;4391298;32;20496;-71
2021/12/13 06:26:08;;;;;;;3.58;2.10;;;-5.70;99.90;;;;;;4391252;32;20157;-72
2021/12/13 06:28:55;;;;;;;5.28;2.03;;;-5.70;99.90;;;;;;4391112;32;20058;-72
2021/12/13 06:31:26;;;;;;;3.87;1.92;;;-5.60;99.90;;;;;;4391318;32;20085;-72
2021/12/13 06:34:06;;;;;;;4.00;2.30;;;-5.50;99.90;;;;;;4390919;32;20077;-71
2021/12/13 06:36:45;;;;;;;3.78;2.10;;;-5.40;99.90;;;;;;4403423;32;20107;-73
2021/12/13 06:39:18;;;;;;;2.90;2.00;;;-5.40;99.90;;;;;;4378815;32;20527;-72
2021/12/13 06:42:02;;;;;;;3.20;2.03;;;-5.40;99.90;;;;;;4391317;32;20097;-73
2021/12/13 06:44:45;;;;;;;3.60;2.40;;;-5.40;99.90;;;;;;4403398;32;20544;-72
2021/12/13 06:47:24;;;;;;;6.03;2.30;;;-5.40;99.90;;;;;;4403492;32;20531;-71
2021/12/13 06:49:57;;;;;;;5.07;2.58;;;-5.40;99.90;;;;;;4392327;32;20452;-72
2021/12/13 06:52:37;;;;;;;4.53;2.40;;;-5.40;99.90;;;;;;4378767;32;20089;-71
2021/12/13 06:55:15;;;;;;;4.30;2.08;;;-5.40;99.90;;;;;;4390573;32;20515;-71
2021/12/13 06:57:46;;;;;;;5.97;2.50;;;-5.40;99.90;;;;;;4390527;32;20077;-71
2021/12/13 07:00:32;;;;;;;3.92;2.25;;;-5.40;99.90;;;;;;4390852;32;20592;-73
2021/12/13 07:03:06;;;;;;;5.57;2.75;;;-5.30;99.90;;;;;;4378247;32;20086;-73
2021/12/13 07:05:46;;;;;;;3.92;1.95;;;-5.30;99.90;;;;;;4390439;32;20077;-71
2021/12/13 07:08:20;;;;;;;3.50;2.30;;;-5.30;99.90;;;;;;4390290;32;20512;-71
2021/12/13 07:11:03;;;;;;;8.15;2.60;;;-5.20;99.90;;;;;;4391656;32;20509;-71
2021/12/13 07:13:39;;;;;;;4.72;2.30;;;-5.20;99.90;;;;;;4402974;32;20090;-69
2021/12/13 07:16:06;;;;;;;;;;;-5.10;99.90;;;;;;4402992;32;20636;-71
2021/12/13 07:19:11;;;;;;;3.47;2.50;;;-5.20;99.90;;;;;;4390797;32;19988;-72
2021/12/13 07:21:57;;;;;;;6.07;2.45;;;-5.10;99.90;;;;;;4403046;32;20496;-73
2021/12/13 07:24:44;;;;;;;6.30;2.40;;;-5.10;99.90;;;;;;4377641;32;20153;-72
2021/12/13 07:27:23;;;;;;;5.53;2.47;;;-5.10;99.90;;;;;;4390873;32;20176;-71
2021/12/13 07:29:55;;;;;;;7.10;2.50;;;-5.00;99.90;;;;;;4377006;32;20149;-74
2021/12/13 07:32:31;;;;;;;4.20;2.22;;;-4.90;99.90;;;;;;4381561;32;20173;-76
2021/12/13 07:35:43;;;;;;;9.15;2.83;;;-4.90;99.90;;;;;;4386129;32;20097;-74
2021/12/13 07:38:18;;;;;;;5.10;2.50;;;-4.70;99.90;;;;;;4385569;32;20100;-76
2021/12/13 07:41:02;;;;;;;4.65;2.35;;;-4.80;99.90;;;;;;4388320;32;20077;-74
2021/12/13 07:43:43;;;;;;;8.90;2.95;;;-4.60;99.90;;;;;;4369040;32;20086;-74
2021/12/13 07:46:21;;;;;;;4.35;2.30;;;-4.70;99.90;;;;;;4388114;32;20121;-73
2021/12/13 07:48:49;;;;;;;2.28;1.80;;;-4.80;99.90;;;;;;4383900;32;20119;-74
2021/12/13 07:51:15;;;;;;;4.10;1.83;;;-4.70;99.90;;;;;;4374100;32;20077;-74
2021/12/13 07:53:52;;;;;;;4.00;2.80;;;-4.80;99.90;;;;;;4380370;32;20082;-73
2021/12/13 07:56:40;;;;;;;;;;;-4.80;99.90;;;;;;4377276;32;20524;-72
2021/12/13 07:59:24;;;;;;;5.93;2.55;;;-4.70;99.90;;;;;;4390710;32;19965;-72
2021/12/13 08:02:07;;;;;;;5.05;2.62;;;-4.70;99.90;;;;;;4389375;32;20066;-73
2021/12/13 08:04:42;;;;;;;5.20;2.40;;;-4.70;99.90;;;;;;4388473;32;20152;-71
2021/12/13 08:07:14;;;;;;;5.25;2.42;;;-4.80;99.90;;;;;;4385498;32;20098;-68
2021/12/13 08:09:54;;;;;;;4.78;2.60;;;-4.70;99.90;;;;;;4375324;32;20102;-73
2021/12/13 08:12:35;;;;;;;6.15;2.55;;;-4.70;99.90;;;;;;4381465;32;20055;-71
2021/12/13 08:15:15;;;;;;;3.72;2.35;;;-4.60;99.90;;;;;;4381753;32;20174;-68
2021/12/13 08:17:55;;;;;;;4.87;2.58;;;-4.60;99.90;;;;;;4377905;32;20157;-73
2021/12/13 08:20:30;;;;;;;5.68;2.80;;;-4.40;99.90;;;;;;4398372;32;20072;-73
2021/12/13 08:22:58;;;;;;;5.30;2.80;;;-4.40;99.90;;;;;;4361197;32;20062;-73
2021/12/13 08:25:33;;;;;;;4.90;2.70;;;-4.20;99.90;;;;;;4366394;32;20082;-68
2021/12/13 08:28:10;;;;;;;4.72;2.67;;;-4.10;99.90;;;;;;4383884;32;20163;-71
2021/12/13 08:30:48;;;;;;;6.75;2.30;;;-4.20;99.90;;;;;;4389784;32;20077;-71
2021/12/13 08:33:19;;;;;;;6.40;2.53;;;-4.00;99.90;;;;;;4358895;32;20078;-72
2021/12/13 08:36:02;;;;;;;4.07;2.40;;;-3.90;99.90;;;;;;4352388;32;20077;-75
2021/12/13 08:38:40;;;;;;;6.35;2.60;;;-3.90;99.90;;;;;;4374871;32;20137;-72
2021/12/13 08:41:20;;;;;;;5.55;3.00;;;-3.70;99.90;;;;;;4377179;32;20082;-71
2021/12/13 08:44:05;;;;;;;7.95;2.95;;;-3.60;99.90;;;;;;4372305;32;20066;-68
2021/12/13 08:46:46;;;;;;;8.98;3.05;;;-3.70;99.90;;;;;;4385495;32;20073;-74
2021/12/13 08:49:33;;;;;;;4.00;2.58;;;-3.60;99.20;;;;;;4379890;32;20074;-68
2021/12/13 08:51:59;;;;;;;;;;;-3.70;99.40;;;;;;4384371;32;20208;-71
2021/12/13 08:54:56;;;;;;;5.18;2.20;;;-3.50;98.70;;;;;;4385266;32;20037;-73
2021/12/13 08:57:46;;;;;;;4.90;2.22;;;-3.40;98.70;;;;;;4357753;32;20062;-71
2021/12/13 09:00:13;;;;;;;8.75;2.35;;;-3.30;98.10;;;;;;4379353;32;20125;-68
2021/12/13 09:03:23;;;;;;;3.25;2.10;;;-3.40;97.80;;;;;;4379540;32;20181;-70
2021/12/13 09:06:01;;;;;;;7.03;2.40;;;-3.50;98.20;;;;;;4369703;32;20131;-71
2021/12/13 09:08:41;;;;;;;7.37;3.08;;;-3.60;98.10;;;;;;4367395;32;20151;-69
2021/12/13 09:11:39;;;;;;;7.45;2.90;;;-3.50;98.00;;;;;;4360052;32;20513;-73
2021/12/13 09:14:30;;;;;;;11.43;2.90;;;-3.50;98.30;;;;;;4377903;32;20085;-73
2021/12/13 09:17:12;;;;;;;6.87;2.70;;;-3.40;97.90;;;;;;4379530;32;20105;-70
2021/12/13 09:19:47;;;;;;;4.60;3.05;;;-3.40;98.00;;;;;;4384209;32;20058;-72
2021/12/13 09:22:34;;;;;;;8.30;2.95;;;-3.20;98.40;;;;;;4383526;32;20081;-73
2021/12/13 09:25:09;;;;;;;6.95;3.10;;;-3.20;98.50;;;;;;4379285;32;20058;-72
2021/12/13 09:27:56;;;;;;;4.90;2.90;;;-3.30;98.80;;;;;;4369433;32;20077;-71
2021/12/13 09:30:33;;;;;;;6.78;3.28;;;-3.20;98.80;;;;;;4390249;32;20066;-74
2021/12/13 09:33:07;;;;;;;5.28;2.75;;;-3.20;98.50;;;;;;4386116;32;20090;-76
2021/12/13 09:35:49;;;;;;;12.00;3.37;;;-3.20;99.20;;;;;;4389360;32;20198;-73
2021/12/13 09:38:28;;;;;;;12.35;3.80;;;-3.10;99.10;;;;;;4368772;32;20081;-74
2021/12/13 09:41:12;;;;;;;11.27;3.60;;;-2.90;99.10;;;;;;4380947;32;20075;-76
2021/12/13 09:43:54;;;;;;;5.97;3.28;;;-2.80;98.50;;;;;;4375337;32;20073;-74
2021/12/13 09:47:01;;;;;;;9.35;3.20;;;-2.80;97.80;;;;;;4384233;32;20070;-75
2021/12/13 09:49:57;;;;;;;6.57;2.55;;;-2.80;97.90;;;;;;3792099;37;20063;-73
2021/12/13 09:52:30;;;;;;;4.55;3.00;;;-2.80;98.20;;;;;;4363829;32;20078;-75
2021/12/13 09:55:32;;;;;;;6.15;3.17;;;-3.00;98.50;;;;;;4340913;32;20175;-74
2021/12/13 09:58:21;;;;;;;6.15;2.85;;;-2.90;98.90;;;;;;4360755;32;20163;-75
2021/12/13 10:01:08;;;;;;;6.15;2.62;;;-2.90;99.20;;;;;;4358379;32;20109;-74
2021/12/13 10:04:02;;;;;;;5.07;3.17;;;-2.90;99.90;;;;;;4366517;32;20576;-75
2021/12/13 10:06:52;;;;;;;5.72;2.62;;;-2.90;99.90;;;;;;4359219;32;20178;-74
2021/12/13 10:09:31;;;;;;;9.02;3.05;;;-3.00;99.90;;;;;;4350218;32;20097;-75
2021/12/13 10:12:23;;;;;;;7.40;3.45;;;-2.90;99.80;;;;;;4360632;32;20086;-73
2021/12/13 10:14:56;;;;;;;6.82;3.00;;;-2.90;99.70;;;;;;4352893;32;20082;-71
2021/12/13 10:17:31;;;;;;;6.65;2.58;;;-2.80;99.30;;;;;;4350385;32;20105;-72
2021/12/13 10:20:05;;;;;;;4.95;2.33;;;-2.80;98.80;;;;;;4372164;32;20110;-74
2021/12/13 10:22:33;;;;;;;4.00;2.00;;;-2.90;98.60;;;;;;4354800;32;20086;-75
2021/12/13 10:25:11;;;;;;;3.37;1.85;;;-2.90;97.70;;;;;;4366785;32;20625;-74
2021/12/13 10:27:39;;;;;;;4.18;2.30;;;-2.90;97.50;;;;;;4341390;32;20070;-72
2021/12/13 10:30:23;;;;;;;3.03;2.45;;;-3.00;97.20;;;;;;4366836;32;20092;-72
2021/12/13 10:32:50;;;;;;;4.30;2.42;;;-3.00;97.10;;;;;;4356506;32;20202;-72
2021/12/13 10:35:25;;;;;;;11.35;2.90;;;-2.90;97.30;;;;;;4354083;32;20162;-74
2021/12/13 10:37:58;;;;;;;4.18;2.20;;;-3.00;97.50;;;;;;4337825;32;20485;-76
2021/12/13 10:40:52;;;;;;;6.82;2.30;;;-3.00;97.70;;;;;;4362627;32;20191;-73
2021/12/13 10:43:47;;;;;;;4.62;2.20;;;-2.90;98.10;;;;;;4363256;32;20070;-78
2021/12/13 10:46:33;;;;;;;4.70;2.20;;;-3.00;98.20;;;;;;4369566;32;20105;-76
2021/12/13 10:49:21;;;;;;;5.85;2.90;;;-3.00;98.70;;;;;;4357396;32;20058;-75
2021/12/13 10:52:14;;;;;;;5.07;2.35;;;-2.90;98.60;;;;;;4358144;32;20066;-74
2021/12/13 10:54:47;;;;;;;3.60;2.08;;;-3.00;98.70;;;;;;4348167;32;20500;-75
2021/12/13 10:57:27;;;;;;;10.38;2.58;;;-3.10;98.90;;;;;;4346967;32;20081;-76
2021/12/13 10:59:55;;;;;;;6.00;2.40;;;-3.00;99.10;;;;;;4351135;32;20107;-78
2021/12/13 11:02:31;;;;;;;4.20;2.03;;;-3.10;98.70;;;;;;4364389;32;20082;-77
2021/12/13 11:05:14;;;;;;;4.55;2.37;;;-3.10;98.40;;;;;;4363171;32;20465;-73
2021/12/13 11:07:42;;;;;;;3.53;2.22;;;-3.20;98.50;;;;;;4333891;32;20107;-75
2021/12/13 11:10:13;;;;;;;3.78;2.30;;;-3.20;98.70;;;;;;4334946;32;20077;-71
2021/12/13 11:12:45;;;;;;;8.98;2.10;;;-3.20;98.90;;;;;;4348767;32;20141;-77
2021/12/13 11:15:21;;;;;;;4.50;2.22;;;-3.20;99.10;;;;;;4356439;32;20185;-77
2021/12/13 11:17:49;;;;;;;3.95;2.25;;;-3.20;98.90;;;;;;4343766;32;20098;-78
2021/12/13 11:20:39;;;;;;;6.53;2.58;;;-3.20;99.10;;;;;;4348774;32;20078;-73
2021/12/13 11:23:09;;;;;;;4.60;2.37;;;-3.20;99.20;;;;;;4341091;32;20098;-74
2021/12/13 11:25:52;;;;;;;5.05;2.65;;;-3.20;99.10;;;;;;4349163;32;20607;-75
2021/12/13 11:28:20;;;;;;;6.05;2.85;;;-3.30;99.20;;;;;;4337069;32;20110;-77
2021/12/13 11:30:48;;;;;;;6.22;2.37;;;-3.30;99.20;;;;;;4353557;32;20154;-73
2021/12/13 11:33:41;;;;;;;6.80;2.83;;;-3.30;99.00;;;;;;4349694;32;20491;-74
2021/12/13 11:36:08;;;;;;;3.72;2.30;;;-3.30;99.00;;;;;;4378639;32;20085;-73
2021/12/13 11:39:09;;;;;;;5.35;2.70;;;-3.30;98.80;;;;;;4346439;32;20081;-71
2021/12/13 11:43:03;;;;;;;5.00;2.60;;;-3.30;98.90;;;;;;4361171;32;20105;-72
2021/12/13 11:45:50;;;;;;;4.95;2.58;;;-3.30;99.20;;;;;;4304306;32;20063;-74
2021/12/13 11:48:53;;;;;;;4.12;2.45;;;-3.40;98.90;;;;;;4365005;32;20106;-73
2021/12/13 11:51:47;;;;;;;4.68;2.55;;;-3.40;99.20;;;;;;4360865;32;20067;-72
2021/12/13 11:54:54;;;;;;;4.80;2.62;;;-3.40;98.90;;;;;;4370971;32;20596;-75
2021/12/13 11:58:21;;;;;;;4.72;2.00;;;-3.40;98.30;;;;;;4356878;32;20166;-75
2021/12/13 12:01:39;;;;;;;7.25;2.75;;;-3.40;98.80;;;;;;4365090;32;20130;-76
2021/12/13 12:05:05;;;;;;;6.18;3.03;;;-3.40;98.90;;;;;;4352347;32;20275;-72
2021/12/13 12:08:23;;;;;;;6.70;3.20;;;-3.40;98.90;;;;;;4358013;32;20074;-73
2021/12/13 12:11:15;;;;;;;5.43;2.80;;;-3.50;98.80;;;;;;4345686;32;20103;-74
2021/12/13 12:14:06;;;;;;;3.87;2.50;;;-3.50;98.80;;;;;;4340738;32;20106;-72
2021/12/13 12:16:42;;;;;;;6.22;2.42;;;-3.50;98.10;;;;;;4353241;32;20167;-73
2021/12/13 12:19:17;;;;;;;3.60;2.40;;;-3.40;98.20;;;;;;4351845;32;20501;-73
2021/12/13 12:21:50;;;;;;;7.57;2.30;;;-3.40;97.90;;;;;;4345682;32;20169;-70
2021/12/13 12:24:27;;;;;;;5.40;2.50;;;-3.40;97.80;;;;;;4347590;32;20070;-71
2021/12/13 12:27:17;;;;;;;6.30;3.28;;;-3.40;97.90;;;;;;4353984;32;20182;-73
2021/12/13 12:29:55;;;;;;;8.20;3.22;;;-3.40;98.00;;;;;;4343415;32;20540;-74
2021/12/13 12:32:32;;;;;;;6.95;1.85;;;-3.50;97.90;;;;;;4336249;32;20209;-70
2021/12/13 12:35:18;;;;;;;4.85;2.28;;;-3.50;98.20;;;;;;4352977;32;20117;-71
2021/12/13 12:37:57;;;;;;;4.25;2.28;;;-3.50;98.10;;;;;;4364035;32;20204;-70
2021/12/13 12:41:06;;;;;;;5.97;2.20;;;-3.50;99.10;;;;;;4349196;32;20059;-68
2021/12/13 12:43:37;;;;;;;6.32;2.37;;;-3.50;99.30;;;;;;4371308;32;20094;-73
2021/12/13 12:46:08;;;;;;;4.05;2.05;;;-3.50;99.40;;;;;;4347407;32;20078;-72
2021/12/13 12:48:44;;;;;;;5.28;2.25;;;-3.50;99.70;;;;;;4358210;32;20473;-71
2021/12/13 12:51:19;;;;;;;4.10;2.50;;;-3.50;99.80;;;;;;4350740;32;20097;-70
2021/12/13 12:53:53;;;;;;;6.50;2.35;;;-3.50;99.90;;;;;;4364697;32;20088;-73
2021/12/13 12:56:31;;;;;;;3.75;2.42;;;-3.50;99.90;;;;;;4347692;32;20074;-71
2021/12/13 12:59:21;;;;;;;7.60;2.40;;;-3.50;99.90;;;;;;4367336;32;20194;-69
2021/12/13 13:01:55;;;;;;;4.82;2.53;;;-3.50;99.90;;;;;;4347808;32;20128;-70
2021/12/13 13:04:43;;;;;;;3.75;2.40;;;-3.50;99.90;;;;;;4361805;32;20077;-66
2021/12/13 13:07:14;;;;;;;5.78;2.08;;;-3.60;99.90;;;;;;4356643;32;20102;-69
2021/12/13 13:09:46;;;;;;;5.93;2.12;;;-3.60;99.90;;;;;;4350652;32;20192;-74
2021/12/13 13:12:35;;;;;;;4.72;2.33;;;-3.60;99.90;;;;;;4350707;32;20496;-71
2021/12/13 13:15:14;;;;;;;5.50;2.15;;;-3.60;99.90;;;;;;4347065;32;20070;-72
2021/12/13 13:17:47;;;;;;;4.15;1.90;;;-3.60;99.90;;;;;;4335426;32;20512;-70
2021/12/13 13:20:26;;;;;;;3.30;1.77;;;-3.70;99.90;;;;;;4358890;32;20074;-70
2021/12/13 13:22:55;;;;;;;3.42;2.10;;;-3.60;99.90;;;;;;4360177;32;20590;-74
2021/12/13 13:25:40;;;;;;;3.50;1.77;;;-3.60;99.90;;;;;;4359417;32;20146;-70
2021/12/13 13:28:21;;;;;;;3.00;2.17;;;-3.60;99.90;;;;;;4345595;32;20489;-66
2021/12/13 13:31:18;;;;;;;4.32;2.03;;;-3.60;99.90;;;;;;4364699;32;20504;-69
2021/12/13 13:33:59;;;;;;;3.35;1.98;;;-3.70;99.90;;;;;;4359377;32;20635;-73
2021/12/13 13:36:36;;;;;;;4.95;1.90;;;-2.90;99.90;;;;;;4359970;32;20082;-72
2021/12/13 13:39:42;;;;;;;3.28;1.95;;;-3.40;99.90;;;;;;4344337;32;20071;-70
2021/12/13 13:42:10;;;;;;;8.18;2.12;;;-3.10;99.90;;;;;;4353662;32;20525;-71
2021/12/13 13:44:43;;;;;;;4.15;2.15;;;-3.30;99.90;;;;;;4340248;32;20073;-70
2021/12/13 13:47:30;;;;;;;4.95;2.20;;;-3.60;99.90;;;;;;4355671;32;20166;-70
2021/12/13 13:49:59;;;;;;;4.95;2.50;;;-3.00;99.90;;;;;;4354977;32;20531;-70
2021/12/13 13:52:29;;;;;;;5.15;2.60;;;-3.50;99.90;;;;;;4343823;32;20113;-73
2021/12/13 13:55:01;;;;;;;4.22;2.10;;;-2.70;99.90;;;;;;4351401;32;20106;-71
2021/12/13 13:57:31;;;;;;;8.63;2.20;;;-3.70;99.90;;;;;;4352917;32;20157;-70
2021/12/13 13:59:59;;;;;;;7.25;3.00;;;-4.00;99.90;;;;;;4345215;32;20080;-68
2021/12/13 14:02:36;;;;;;;6.30;2.67;;;-4.00;99.90;;;;;;4353712;32;20169;-67
2021/12/13 14:05:09;;;;;;;3.90;2.60;;;-4.00;99.90;;;;;;4350417;32;20085;-67
2021/12/13 14:07:37;;;;;;;6.65;3.25;;;-4.00;99.90;;;;;;4356907;32;20081;-67
2021/12/13 14:10:11;;;;;;;5.57;2.70;;;-4.10;99.90;;;;;;4330232;32;20077;-71